Aérodrome :
LOGIN :

S'inscrire | Disclaimer

   EN    FR    IT 

 










Légende :    VFR   VFR Marginal   IFR   IFR Intensif   IFR Très Intensif
Visi : 
Plafond : 
>= 8 km
>= 3000ft
5 à 8 km
1000 à 3000 ft
1500m à 5 km
500 à 1000 ft
800 à 1500m
200 à 500 ft
< 800m
< 200 ft
Symboles :   Orages  Brouillard  Fortes neiges  Fortes précipitations  Vent > 20 kt
SIGMETs :   Divers  Orages  Givrage  Turbulence  Onde Orograph.  Cendres Volcan.






- Altitude de l'aérodrome : 126 ft
- Code IATA : WIC


EGPC - Wick

DERNIER METAR :
  • 171450Z 24013KT 9999 FEW025 07/02 Q0998

METARs EXPIRÉS :
  • 171420Z 24015KT 9999 FEW025 07/01 Q0998
  • 171350Z 24015G28KT 9999 FEW025 07/01 Q0997
  • 171320Z 24015G26KT 9999 FEW025 07/02 Q0997
  • 171250Z 23015KT 9999 FEW025 07/02 Q0997
  • 171220Z 22016KT 9999 FEW025 06/03 Q0996

TAF TAF EGPC
Valide du 17 à 15h jusqu'au 18 à 00h UTC


171358Z 1715/1724 22018G28KT 9999 FEW030
PROB30
TEMPO 1715/1724 6000 SHRA BKN014
BECMG 1718/1721 28015KT
TEMPO 1718/1724 29018G28KT
PROB40
TEMPO 1721/1724 29022G38KT
ATIS : +44 1955 607 596



MET'MAP, la Météo Aéronautique d'un coup d'oeil ! - Copyright ORBIFLY Décembre 2007 - Disclaimer

ORBIFLY MET'MAP TEAM :

Programmation & Développement : Alexandra Zaïnal
Sur une idée originale de : Baudouin d'Aumeries
Assistance à la programmation : Marc-Olivier Méhu
Soutien technique & logistique : Manuel Goepfert

Contact : metmap@orbifly.com




SOURCES & CREDITS :

   NOAA